createdAt,value
2018-01-28T00:02:11.527Z,101315.74
2018-01-28T00:04:40.842Z,101324.92
2018-01-28T00:07:10.858Z,101316.69
2018-01-28T00:09:40.310Z,101320.20
2018-01-28T00:12:10.330Z,101327.48
2018-01-28T00:14:40.482Z,101326.65
2018-01-28T00:17:09.706Z,101329.61
2018-01-28T00:19:39.444Z,101308.98
2018-01-28T00:22:08.633Z,101311.37
2018-01-28T00:24:38.644Z,101319.61
2018-01-28T00:27:08.006Z,101317.97
2018-01-28T00:29:37.225Z,101315.67
2018-01-28T00:32:06.451Z,101312.06
2018-01-28T00:34:35.650Z,101314.33
2018-01-28T00:37:05.658Z,101303.80
2018-01-28T00:39:35.642Z,101300.97
2018-01-28T00:42:04.948Z,101308.52
2018-01-28T00:44:34.151Z,101301.91
2018-01-28T00:47:04.253Z,101307.85
2018-01-28T00:49:34.302Z,101296.22
2018-01-28T00:52:03.631Z,101303.91
2018-01-28T00:54:32.849Z,101297.19
2018-01-28T00:57:02.252Z,101281.14
2018-01-28T00:59:31.530Z,101267.22
2018-01-28T01:02:00.755Z,101261.42
2018-01-28T01:04:30.004Z,101271.80
2018-01-28T01:06:59.968Z,101253.03
2018-01-28T01:09:29.181Z,101268.00
2018-01-28T01:11:58.403Z,101265.84
2018-01-28T01:14:27.684Z,101255.89
2018-01-28T01:16:56.905Z,101243.06
2018-01-28T01:19:26.896Z,101250.07
2018-01-28T01:21:56.144Z,101245.75
2018-01-28T01:24:25.394Z,101264.93
2018-01-28T01:26:54.591Z,101274.88
2018-01-28T01:29:23.859Z,101269.78
2018-01-28T01:31:53.093Z,101265.06
2018-01-28T01:34:22.411Z,101271.95
2018-01-28T01:36:51.769Z,101290.13
2018-01-28T01:39:20.954Z,101297.14
2018-01-28T01:41:50.171Z,101290.83
2018-01-28T01:44:19.438Z,101293.66
2018-01-28T01:46:48.662Z,101290.16
2018-01-28T01:49:35.455Z,101293.52
2018-01-28T01:52:04.685Z,101290.16
2018-01-28T01:54:33.954Z,101287.72
2018-01-28T01:57:03.162Z,101284.34
2018-01-28T01:59:32.351Z,101277.74
2018-01-28T02:02:01.678Z,101295.81
2018-01-28T02:04:31.769Z,101296.22
2018-01-28T02:07:01.004Z,101285.30
2018-01-28T02:09:30.217Z,101267.89
2018-01-28T02:12:00.178Z,101274.10
2018-01-28T02:14:29.446Z,101273.02
2018-01-28T02:16:59.411Z,101288.67
2018-01-28T02:19:28.642Z,101305.27
2018-01-28T02:21:57.867Z,101309.58
2018-01-28T02:24:27.082Z,101310.52
2018-01-28T02:26:56.359Z,101301.78
2018-01-28T02:29:26.348Z,101292.58
2018-01-28T02:31:55.537Z,101282.08
2018-01-28T02:34:24.759Z,101282.33
2018-01-28T02:36:53.950Z,101282.89
2018-01-28T02:39:23.280Z,101298.27
2018-01-28T02:41:52.486Z,101282.89
2018-01-28T02:44:21.714Z,101284.11
2018-01-28T02:46:50.943Z,101279.22
2018-01-28T02:49:20.908Z,101258.20
2018-01-28T02:51:50.130Z,101254.70
2018-01-28T02:54:19.358Z,101255.10
2018-01-28T02:56:48.566Z,101257.80
2018-01-28T02:59:17.769Z,101262.78
2018-01-28T03:01:46.991Z,101253.36
2018-01-28T03:04:16.282Z,101257.00
2018-01-28T03:06:45.557Z,101258.08
2018-01-28T03:09:14.870Z,101265.64
2018-01-28T03:11:44.081Z,101267.25
2018-01-28T03:14:14.088Z,101266.17
2018-01-28T03:16:43.295Z,101256.35
2018-01-28T03:19:12.498Z,101266.73
2018-01-28T03:21:41.723Z,101265.81
2018-01-28T03:24:10.950Z,101275.80
2018-01-28T03:26:40.921Z,101296.84
2018-01-28T03:29:10.162Z,101303.45
2018-01-28T03:31:40.174Z,101287.69
2018-01-28T03:34:09.459Z,101281.48
2018-01-28T03:36:38.658Z,101283.77
2018-01-28T03:39:07.861Z,101294.05
2018-01-28T03:41:37.894Z,101303.35
2018-01-28T03:44:07.182Z,101317.80
2018-01-28T03:46:36.390Z,101312.13
2018-01-28T03:49:05.839Z,101315.39
2018-01-28T03:51:35.242Z,101328.34
2018-01-28T03:54:04.442Z,101334.44
2018-01-28T03:56:33.747Z,101331.60
2018-01-28T03:59:02.951Z,101322.55
2018-01-28T04:01:32.194Z,101332.55
2018-01-28T04:04:01.406Z,101319.84
2018-01-28T04:06:30.622Z,101316.73
2018-01-28T04:08:59.843Z,101320.68
2018-01-28T04:11:29.046Z,101331.75
2018-01-28T04:13:58.280Z,101332.55
2018-01-28T04:16:28.249Z,101336.89
2018-01-28T04:18:57.467Z,101325.81
2018-01-28T04:21:26.697Z,101325.01
2018-01-28T04:23:55.903Z,101320.12
2018-01-28T04:26:25.130Z,101321.63
2018-01-28T04:28:54.378Z,101315.95
2018-01-28T04:31:24.348Z,101310.41
2018-01-28T04:33:53.619Z,101319.75
2018-01-28T04:36:22.810Z,101319.88
2018-01-28T04:38:52.054Z,101322.17
2018-01-28T04:41:21.246Z,101322.19
2018-01-28T04:43:50.470Z,101325.29
2018-01-28T04:46:19.699Z,101335.41
2018-01-28T04:48:49.650Z,101342.97
2018-01-28T04:51:18.857Z,101354.59
2018-01-28T04:53:48.060Z,101351.64
2018-01-28T04:56:17.279Z,101342.02
2018-01-28T04:58:46.467Z,101343.79
2018-01-28T05:01:17.203Z,101328.93
2018-01-28T05:03:46.398Z,101328.25
2018-01-28T05:06:15.613Z,101341.77
2018-01-28T05:08:45.587Z,101340.81
2018-01-28T05:11:14.788Z,101332.16
2018-01-28T05:13:44.078Z,101331.77
2018-01-28T05:16:13.285Z,101338.25
2018-01-28T05:18:42.503Z,101338.52
2018-01-28T05:21:12.599Z,101345.83
2018-01-28T05:23:42.013Z,101351.37
2018-01-28T05:26:11.265Z,101344.87
2018-01-28T05:28:40.558Z,101338.14
2018-01-28T05:31:09.738Z,101348.55
2018-01-28T05:33:39.783Z,101348.13
2018-01-28T05:36:08.965Z,101346.76
2018-01-28T05:38:38.232Z,101350.69
2018-01-28T05:41:07.447Z,101351.92
2018-01-28T05:43:38.174Z,101355.70
2018-01-28T05:46:08.167Z,101359.05
2018-01-28T05:48:37.430Z,101352.72
2018-01-28T05:51:06.614Z,101356.91
2018-01-28T05:53:35.846Z,101351.09
2018-01-28T05:56:05.031Z,101338.80
2018-01-28T05:58:34.216Z,101357.45
2018-01-28T06:01:03.455Z,101362.16
2018-01-28T06:03:34.212Z,101358.94
2018-01-28T06:06:04.218Z,101352.56
2018-01-28T06:08:34.194Z,101354.34
2018-01-28T06:11:03.525Z,101348.25
2018-01-28T06:13:32.671Z,101357.99
2018-01-28T06:16:01.983Z,101358.66
2018-01-28T06:18:31.277Z,101369.73
2018-01-28T06:21:00.490Z,101365.41
2018-01-28T06:23:29.701Z,101395.42
2018-01-28T06:25:58.919Z,101403.92
2018-01-28T06:28:28.136Z,101418.80
2018-01-28T06:30:58.084Z,101426.11
2018-01-28T06:33:27.307Z,101427.08
2018-01-28T06:35:56.515Z,101419.63
2018-01-28T06:38:25.729Z,101432.47
2018-01-28T06:40:55.729Z,101429.92
2018-01-28T06:43:24.956Z,101426.52
2018-01-28T06:45:54.927Z,101427.88
2018-01-28T06:48:24.167Z,101435.45
2018-01-28T06:50:53.350Z,101432.87
2018-01-28T06:53:23.379Z,101433.30
2018-01-28T06:55:53.351Z,101440.59
2018-01-28T06:58:22.596Z,101436.40
2018-01-28T07:00:52.578Z,101445.60
2018-01-28T07:03:21.806Z,101447.20
2018-01-28T07:05:51.790Z,101452.20
2018-01-28T07:08:21.024Z,101455.45
2018-01-28T07:10:51.002Z,101459.79
2018-01-28T07:13:20.238Z,101451.80
2018-01-28T07:15:49.482Z,101454.23
2018-01-28T07:18:18.736Z,101456.80
2018-01-28T07:20:47.971Z,101453.45
2018-01-28T07:23:17.178Z,101454.13
2018-01-28T07:25:46.403Z,101463.19
2018-01-28T07:28:15.614Z,101459.53
2018-01-28T07:30:45.815Z,101476.30
2018-01-28T07:33:15.107Z,101469.81
2018-01-28T07:35:44.340Z,101491.04
2018-01-28T07:38:14.315Z,101477.78
2018-01-28T07:40:43.521Z,101484.95
2018-01-28T07:43:12.730Z,101487.92
2018-01-28T07:45:42.130Z,101488.88
2018-01-28T07:48:11.534Z,101485.36
2018-01-28T07:50:40.770Z,101480.89
2018-01-28T07:53:09.979Z,101486.58
2018-01-28T07:55:39.216Z,101492.13
2018-01-28T07:58:08.414Z,101500.91
2018-01-28T08:00:37.820Z,101494.02
2018-01-28T08:03:07.078Z,101498.33
2018-01-28T08:05:36.307Z,101500.25
2018-01-28T08:08:05.538Z,101501.98
2018-01-28T08:10:40.942Z,101504.44
2018-01-28T08:13:25.889Z,101509.70
2018-01-28T08:15:55.129Z,101501.33
2018-01-28T08:18:24.389Z,101501.44
2018-01-28T08:20:53.615Z,101507.93
2018-01-28T08:23:23.642Z,101521.64
2018-01-28T08:25:52.847Z,101523.13
2018-01-28T08:28:24.190Z,101521.89
2018-01-28T08:30:53.442Z,101522.70
2018-01-28T08:33:22.637Z,101513.09
2018-01-28T08:35:51.865Z,101512.68
2018-01-28T08:38:21.095Z,101503.88
2018-01-28T08:40:50.402Z,101497.11
2018-01-28T08:43:20.508Z,101486.84
2018-01-28T08:45:49.929Z,101490.50
2018-01-28T08:48:19.248Z,101495.77
2018-01-28T08:50:48.556Z,101488.72
2018-01-28T08:53:17.786Z,101489.66
2018-01-28T08:55:47.026Z,101474.23
2018-01-28T08:58:17.003Z,101493.15
2018-01-28T09:00:46.281Z,101490.44
2018-01-28T09:03:15.513Z,101507.49
2018-01-28T09:05:44.714Z,101506.55
2018-01-28T09:08:14.703Z,101510.47
2018-01-28T09:10:43.934Z,101514.67
2018-01-28T09:13:14.055Z,101502.73
2018-01-28T09:15:44.041Z,101510.34
2018-01-28T09:18:13.269Z,101523.03
2018-01-28T09:20:42.475Z,101511.95
2018-01-28T09:23:12.463Z,101539.42
2018-01-28T09:25:42.441Z,101526.83
2018-01-28T09:28:11.704Z,101534.95
2018-01-28T09:30:41.000Z,101536.45
2018-01-28T09:33:10.999Z,101546.70
2018-01-28T09:35:40.205Z,101547.36
2018-01-28T09:38:10.240Z,101531.27
2018-01-28T09:40:40.253Z,101545.48
2018-01-28T09:43:09.572Z,101539.64
2018-01-28T09:45:38.895Z,101550.19
2018-01-28T09:48:08.122Z,101544.22
2018-01-28T09:50:37.321Z,101554.67
2018-01-28T09:53:07.330Z,101555.75
2018-01-28T09:55:36.580Z,101560.62
2018-01-28T09:58:05.772Z,101567.00
2018-01-28T10:00:35.019Z,101576.48
2018-01-28T10:03:04.263Z,101583.53
2018-01-28T10:05:34.366Z,101578.63
2018-01-28T10:08:03.602Z,101575.64
2018-01-28T10:10:32.848Z,101585.53
2018-01-28T10:13:02.054Z,101588.66
2018-01-28T10:15:31.295Z,101584.71
2018-01-28T10:18:00.536Z,101598.95
2018-01-28T10:20:29.760Z,101599.06
2018-01-28T10:22:58.986Z,101602.19
2018-01-28T10:25:28.235Z,101599.74
2018-01-28T10:27:57.459Z,101607.33
2018-01-28T10:30:26.696Z,101599.63
2018-01-28T10:32:55.928Z,101606.37
2018-01-28T10:35:25.233Z,101597.83
2018-01-28T10:37:54.434Z,101610.42
2018-01-28T10:40:23.676Z,101615.59
2018-01-28T10:42:52.901Z,101615.59
2018-01-28T10:45:22.167Z,101603.64
2018-01-28T10:47:51.386Z,101603.91
2018-01-28T10:50:20.935Z,101606.87
2018-01-28T10:52:50.923Z,101595.48
2018-01-28T10:55:20.270Z,101588.69
2018-01-28T10:57:49.855Z,101590.43
2018-01-28T11:00:19.083Z,101600.44
2018-01-28T11:02:48.377Z,101588.20
2018-01-28T11:05:17.651Z,101601.77
2018-01-28T11:07:46.896Z,101606.20
2018-01-28T11:10:16.143Z,101589.08
2018-01-28T11:12:45.399Z,101599.07
2018-01-28T11:15:14.639Z,101597.15
2018-01-28T11:17:43.976Z,101595.02
2018-01-28T11:20:13.453Z,101594.95
2018-01-28T11:22:43.519Z,101598.84
2018-01-28T11:25:13.484Z,101593.09
2018-01-28T11:27:43.477Z,101586.24
2018-01-28T11:30:12.685Z,101588.63
2018-01-28T11:32:42.714Z,101590.80
2018-01-28T11:35:12.758Z,101599.58
2018-01-28T11:37:41.982Z,101595.03
2018-01-28T11:40:11.187Z,101595.55
2018-01-28T11:42:40.439Z,101603.55
2018-01-28T11:45:09.653Z,101599.99
2018-01-28T11:47:38.943Z,101597.02
2018-01-28T11:50:08.330Z,101592.64
2018-01-28T11:52:37.622Z,101599.55
2018-01-28T11:55:09.068Z,101591.25
2018-01-28T11:57:38.378Z,101604.00
2018-01-28T12:00:08.056Z,101603.44
2018-01-28T12:02:37.281Z,101604.84
2018-01-28T12:05:06.605Z,101609.86
2018-01-28T12:07:36.562Z,101609.58
2018-01-28T12:10:05.780Z,101606.23
2018-01-28T12:12:35.850Z,101602.30
2018-01-28T12:15:05.117Z,101607.59
2018-01-28T12:17:34.389Z,101598.08
2018-01-28T12:20:03.631Z,101604.66
2018-01-28T12:22:33.064Z,101606.93
2018-01-28T12:25:03.810Z,101599.17
2018-01-28T12:27:33.030Z,101598.59
2018-01-28T12:30:03.330Z,101591.20
2018-01-28T12:32:34.104Z,101588.95
2018-01-28T12:35:03.319Z,101574.00
2018-01-28T12:37:32.554Z,101559.75
2018-01-28T12:40:01.818Z,101564.53
2018-01-28T12:42:31.026Z,101567.31
2018-01-28T12:45:00.260Z,101571.30
2018-01-28T12:47:29.478Z,101570.70
2018-01-28T12:50:00.445Z,101571.14
2018-01-28T12:52:29.819Z,101569.53
2018-01-28T12:54:59.816Z,101563.61
2018-01-28T12:57:29.079Z,101553.48
2018-01-28T12:59:59.185Z,101551.77
2018-01-28T13:02:29.538Z,101539.98
2018-01-28T13:04:58.758Z,101530.97
2018-01-28T13:07:28.213Z,101524.72
2018-01-28T13:09:57.445Z,101527.86
2018-01-28T13:12:26.688Z,101541.99
2018-01-28T13:14:56.839Z,101543.45
2018-01-28T13:17:26.124Z,101541.70
2018-01-28T13:19:55.359Z,101538.53
2018-01-28T13:22:24.659Z,101529.02
2018-01-28T13:24:55.909Z,101531.67
2018-01-28T13:27:25.127Z,101528.76
2018-01-28T13:29:54.422Z,101526.09
2018-01-28T13:32:24.431Z,101515.87
2018-01-28T13:34:53.654Z,101527.05
2018-01-28T13:37:22.892Z,101532.80
2018-01-28T13:39:52.178Z,101536.77
2018-01-28T13:42:21.413Z,101531.38
2018-01-28T13:44:50.828Z,101529.62
2018-01-28T13:47:20.041Z,101522.06
2018-01-28T13:49:49.450Z,101525.34
2018-01-28T13:52:18.662Z,101529.56
2018-01-28T13:54:47.958Z,101528.09
2018-01-28T13:57:17.211Z,101521.06
2018-01-28T13:59:48.093Z,101523.52
2018-01-28T14:02:17.361Z,101522.02
2018-01-28T14:04:46.574Z,101529.36
2018-01-28T14:07:15.947Z,101525.53
2018-01-28T14:09:45.163Z,101532.48
2018-01-28T14:12:15.188Z,101530.41
2018-01-28T14:14:45.227Z,101530.77
2018-01-28T14:17:14.500Z,101528.05
2018-01-28T14:19:43.735Z,101534.99
2018-01-28T14:22:12.953Z,101543.45
2018-01-28T14:24:42.250Z,101543.71
2018-01-28T14:27:11.461Z,101543.45
2018-01-28T14:29:40.747Z,101558.98
2018-01-28T14:32:09.997Z,101552.63
2018-01-28T14:34:40.023Z,101562.39
2018-01-28T14:37:09.902Z,101552.48
2018-01-28T14:39:39.939Z,101550.09
2018-01-28T14:42:09.929Z,101545.56
2018-01-28T14:44:39.171Z,101558.69
2018-01-28T14:47:08.414Z,101558.75
2018-01-28T14:49:37.685Z,101547.37
2018-01-28T14:52:06.945Z,101546.72
2018-01-28T14:54:36.184Z,101541.02
2018-01-28T14:57:05.565Z,101541.72
2018-01-28T14:59:34.782Z,101537.91
2018-01-28T15:02:04.008Z,101536.73
2018-01-28T15:04:33.211Z,101546.80
2018-01-28T15:07:02.459Z,101540.75
2018-01-28T15:09:31.686Z,101544.72
2018-01-28T15:12:00.940Z,101544.86
2018-01-28T15:14:30.133Z,101552.91
2018-01-28T15:17:00.193Z,101542.73
2018-01-28T15:19:29.467Z,101547.33
2018-01-28T15:21:58.733Z,101544.36
2018-01-28T15:24:28.827Z,101538.81
2018-01-28T15:26:58.565Z,101551.70
2018-01-28T15:29:27.807Z,101546.38
2018-01-28T15:31:57.053Z,101543.95
2018-01-28T15:34:26.306Z,101537.63
2018-01-28T15:36:55.527Z,101544.38
2018-01-28T15:39:24.780Z,101533.77
2018-01-28T15:41:54.005Z,101547.20
2018-01-28T15:44:23.267Z,101543.23
2018-01-28T15:46:52.490Z,101545.23
2018-01-28T15:49:21.759Z,101548.92
2018-01-28T15:51:51.785Z,101547.27
2018-01-28T15:54:21.768Z,101538.30
2018-01-28T15:56:51.003Z,101542.52
2018-01-28T15:59:20.245Z,101539.21
2018-01-28T16:01:49.540Z,101537.86
2018-01-28T16:04:18.977Z,101535.88
2018-01-28T16:06:48.188Z,101543.74
2018-01-28T16:09:18.269Z,101528.39
2018-01-28T16:11:47.558Z,101540.26
2018-01-28T16:14:16.932Z,101530.34
2018-01-28T16:16:46.473Z,101541.58
2018-01-28T16:19:15.704Z,101535.59
2018-01-28T16:21:45.995Z,101546.20
2018-01-28T16:24:15.224Z,101553.84
2018-01-28T16:26:45.259Z,101532.52
2018-01-28T16:29:14.459Z,101541.21
2018-01-28T16:31:43.708Z,101538.50
2018-01-28T16:34:13.835Z,101534.97
2018-01-28T16:36:43.063Z,101542.57
2018-01-28T16:39:12.290Z,101529.49
2018-01-28T16:41:41.564Z,101527.58
2018-01-28T16:44:11.614Z,101529.89
2018-01-28T16:46:40.843Z,101522.30
2018-01-28T16:49:11.614Z,101529.59
2018-01-28T16:51:40.981Z,101537.34
2018-01-28T16:54:10.223Z,101539.11
2018-01-28T16:56:39.454Z,101538.16
2018-01-28T16:59:08.720Z,101542.37
2018-01-28T17:01:38.007Z,101548.87
2018-01-28T17:04:07.286Z,101564.19
2018-01-28T17:06:37.288Z,101561.17
2018-01-28T17:09:07.283Z,101568.37
2018-01-28T17:11:36.709Z,101574.06
2018-01-28T17:14:06.920Z,101566.20
2018-01-28T17:16:36.181Z,101563.73
2018-01-28T17:19:05.443Z,101565.39
2018-01-28T17:21:35.436Z,101572.15
2018-01-28T17:24:04.676Z,101573.30
2018-01-28T17:26:34.667Z,101564.73
2018-01-28T17:29:03.898Z,101563.89
2018-01-28T17:31:33.186Z,101545.95
2018-01-28T17:34:02.483Z,101557.20
2018-01-28T17:36:31.736Z,101548.78
2018-01-28T17:39:01.007Z,101552.09
2018-01-28T17:41:30.486Z,101556.29
2018-01-28T17:44:00.470Z,101561.06
2018-01-28T17:46:29.729Z,101557.95
2018-01-28T17:48:58.938Z,101555.78
2018-01-28T17:51:29.154Z,101559.45
2018-01-28T17:53:58.425Z,101564.89
2018-01-28T17:56:27.669Z,101566.55
2018-01-28T17:58:56.887Z,101563.68
2018-01-28T18:01:26.922Z,101564.93
2018-01-28T18:03:56.946Z,101561.52
2018-01-28T18:06:26.306Z,101564.53
2018-01-28T18:08:55.543Z,101566.98
2018-01-28T18:11:25.602Z,101555.78
2018-01-28T18:13:54.947Z,101559.05
2018-01-28T18:16:24.184Z,101565.84
2018-01-28T18:18:53.655Z,101568.42
2018-01-28T18:21:23.702Z,101558.91
2018-01-28T18:23:53.672Z,101563.78
2018-01-28T18:26:23.037Z,101552.09
2018-01-28T18:28:52.348Z,101566.91
2018-01-28T18:31:21.622Z,101553.02
2018-01-28T18:33:51.099Z,101559.41
2018-01-28T18:36:20.550Z,101551.76
2018-01-28T18:38:49.854Z,101560.98
2018-01-28T18:41:19.037Z,101553.77
2018-01-28T18:43:48.299Z,101544.81
2018-01-28T18:46:19.015Z,101549.41
2018-01-28T18:48:49.065Z,101552.81
2018-01-28T18:51:19.047Z,101543.22
2018-01-28T18:53:48.322Z,101551.92
2018-01-28T18:56:17.619Z,101553.17
2018-01-28T18:58:47.657Z,101534.25
2018-01-28T19:01:17.708Z,101537.41
2018-01-28T19:03:47.092Z,101542.30
2018-01-28T19:06:16.327Z,101542.19
2018-01-28T19:08:45.602Z,101543.15
2018-01-28T19:11:14.880Z,101555.49
2018-01-28T19:13:44.247Z,101555.79
2018-01-28T19:16:13.500Z,101561.78
2018-01-28T19:18:42.805Z,101563.35
2018-01-28T19:21:12.074Z,101564.56
2018-01-28T19:23:41.296Z,101561.23
2018-01-28T19:26:10.571Z,101561.38
2018-01-28T19:28:39.847Z,101556.75
2018-01-28T19:31:09.071Z,101564.50
2018-01-28T19:33:39.061Z,101569.39
2018-01-28T19:36:08.311Z,101565.35
2018-01-28T19:38:38.341Z,101568.63
2018-01-28T19:41:07.575Z,101558.27
2018-01-28T19:43:36.816Z,101557.30
2018-01-28T19:46:06.081Z,101564.29
2018-01-28T19:48:35.310Z,101554.53
2018-01-28T19:51:04.618Z,101546.36
2018-01-28T19:53:34.730Z,101548.84
2018-01-28T19:56:04.727Z,101544.61
2018-01-28T19:58:34.134Z,101541.63
2018-01-28T20:01:04.260Z,101539.72
2018-01-28T20:03:33.492Z,101538.52
2018-01-28T20:06:02.790Z,101543.51
2018-01-28T20:08:32.082Z,101546.36
2018-01-28T20:11:01.403Z,101543.10
2018-01-28T20:13:30.649Z,101541.48
2018-01-28T20:15:59.858Z,101540.53
2018-01-28T20:18:29.127Z,101523.81
2018-01-28T20:20:58.454Z,101533.02
2018-01-28T20:23:28.722Z,101534.13
2018-01-28T20:25:57.995Z,101530.91
2018-01-28T20:28:27.297Z,101547.92
2018-01-28T20:30:56.672Z,101543.25
2018-01-28T20:33:26.726Z,101532.92
2018-01-28T20:35:55.939Z,101531.83
2018-01-28T20:38:25.226Z,101546.91
2018-01-28T20:40:54.482Z,101545.81
2018-01-28T20:43:24.515Z,101543.51
2018-01-28T20:45:54.515Z,101545.55
2018-01-28T20:48:24.530Z,101541.74
2018-01-28T20:50:53.828Z,101551.55
2018-01-28T20:53:24.570Z,101560.11
2018-01-28T20:55:53.887Z,101549.49
2018-01-28T20:58:23.147Z,101549.64
2018-01-28T21:00:53.181Z,101551.30
2018-01-28T21:03:23.185Z,101558.39
2018-01-28T21:05:52.426Z,101556.58
2018-01-28T21:08:21.666Z,101549.08
2018-01-28T21:10:50.941Z,101561.47
2018-01-28T21:13:20.180Z,101574.95
2018-01-28T21:15:50.209Z,101558.80
2018-01-28T21:18:20.209Z,101563.68
2018-01-28T21:20:50.272Z,101572.75
2018-01-28T21:23:19.549Z,101582.92
2018-01-28T21:25:48.802Z,101579.25
2018-01-28T21:28:18.030Z,101569.98
2018-01-28T21:30:47.298Z,101574.10
2018-01-28T21:33:16.563Z,101565.73
2018-01-28T21:35:45.815Z,101549.64
2018-01-28T21:38:15.123Z,101561.36
2018-01-28T21:40:45.138Z,101562.17
2018-01-28T21:43:15.170Z,101559.56
2018-01-28T21:45:45.209Z,101552.62
2018-01-28T21:48:14.518Z,101553.02
2018-01-28T21:50:43.776Z,101551.66
2018-01-28T21:53:13.796Z,101550.45
2018-01-28T21:55:43.847Z,101548.17
2018-01-28T21:58:13.110Z,101551.41
2018-01-28T22:00:42.465Z,101556.58
2018-01-28T22:03:11.707Z,101554.81
2018-01-28T22:05:41.708Z,101552.35
2018-01-28T22:08:10.971Z,101549.94
2018-01-28T22:10:40.293Z,101551.00
2018-01-28T22:13:09.550Z,101543.03
2018-01-28T22:15:38.781Z,101558.24
2018-01-28T22:18:08.088Z,101550.23
2018-01-28T22:20:38.905Z,101551.04
2018-01-28T22:23:08.128Z,101550.20
2018-01-28T22:25:37.518Z,101547.62
2018-01-28T22:28:06.817Z,101539.51
2018-01-28T22:30:36.070Z,101534.08
2018-01-28T22:33:05.320Z,101538.45
2018-01-28T22:35:34.556Z,101543.70
2018-01-28T22:38:03.842Z,101537.81
2018-01-28T22:40:33.845Z,101540.72
2018-01-28T22:43:03.925Z,101534.73
2018-01-28T22:45:33.173Z,101534.22
2018-01-28T22:48:02.410Z,101535.29
2018-01-28T22:50:32.088Z,101536.23
2018-01-28T22:53:02.084Z,101529.84
2018-01-28T22:55:31.332Z,101530.55
2018-01-28T22:58:00.550Z,101528.50
2018-01-28T23:00:29.771Z,101521.73
2018-01-28T23:02:59.002Z,101529.23
2018-01-28T23:05:28.224Z,101515.28
2018-01-28T23:07:57.451Z,101518.41
2018-01-28T23:10:26.689Z,101527.22
2018-01-28T23:12:56.683Z,101524.35
2018-01-28T23:15:25.950Z,101513.44
2018-01-28T23:17:55.217Z,101519.94
2018-01-28T23:20:24.508Z,101521.70
2018-01-28T23:22:53.715Z,101514.38
2018-01-28T23:25:22.965Z,101517.11
2018-01-28T23:27:52.180Z,101521.37
2018-01-28T23:30:21.457Z,101515.40
2018-01-28T23:32:50.746Z,101522.23
2018-01-28T23:35:20.089Z,101517.20
2018-01-28T23:37:50.115Z,101508.90
2018-01-28T23:40:20.159Z,101514.44
2018-01-28T23:42:49.499Z,101512.02
2018-01-28T23:45:18.748Z,101516.25
2018-01-28T23:47:48.720Z,101513.02
2018-01-28T23:50:17.976Z,101516.69
2018-01-28T23:52:47.235Z,101511.27
2018-01-28T23:55:16.495Z,101514.23
2018-01-28T23:57:45.754Z,101507.39
